Time;durP1;ratioP1;P1;durP2;ratioP2;P2;SDS_P1;SDS_P2;PMS_P1;PMS_P2;Temp;Humidity;BMP_temperature;BMP_pressure;BME280_temperature;BME280_humidity;BME280_pressure;Samples;Min_cycle;Max_cycle;Signal;HPM_P1;HPM_P2
2021/09/12 00:00:22;;;;;;;;;19.00;15.00;;;;;18.56;66.89;101689.19;4988668;28;45399;-72
2021/09/12 00:02:47;;;;;;;;;20.25;18.50;;;;;18.56;67.08;101672.38;4990004;28;45391;-72
2021/09/12 00:05:13;;;;;;;;;16.50;15.50;;;;;18.60;66.78;101676.56;4992660;28;45367;-72
2021/09/12 00:07:38;;;;;;;;;16.75;14.75;;;;;18.52;66.49;101661.06;4992418;28;45439;-72
2021/09/12 00:10:05;;;;;;;;;17.75;16.00;;;;;18.61;66.95;101672.94;4992684;28;45437;-72
2021/09/12 00:12:30;;;;;;;;;21.00;18.00;;;;;18.62;67.02;101677.31;4978885;28;45476;-72
2021/09/12 00:14:55;;;;;;;;;16.25;16.00;;;;;18.57;66.41;101671.41;4989530;28;45490;-72
2021/09/12 00:17:21;;;;;;;;;18.50;16.25;;;;;18.64;66.78;101672.78;4992764;28;46397;-72
2021/09/12 00:19:46;;;;;;;;;17.75;14.50;;;;;18.62;67.03;101666.66;4991883;28;45438;-72
2021/09/12 00:22:11;;;;;;;;;19.25;15.75;;;;;18.66;67.02;101673.53;4992457;28;45532;-72
2021/09/12 00:24:37;;;;;;;;;18.00;16.25;;;;;18.65;67.30;101671.81;4992521;28;45562;-72
2021/09/12 00:27:02;;;;;;;;;17.75;15.50;;;;;18.70;67.20;101672.41;4986895;28;46347;-72
2021/09/12 00:29:28;;;;;;;;;17.50;15.00;;;;;18.70;67.00;101675.09;4987055;28;45431;-71
2021/09/12 00:31:53;;;;;;;;;17.25;16.75;;;;;18.74;67.37;101679.25;4976892;28;45440;-72
2021/09/12 00:34:18;;;;;;;;;19.75;17.00;;;;;18.72;66.97;101674.03;4990072;28;45514;-72
2021/09/12 00:36:44;;;;;;;;;16.50;16.50;;;;;18.78;66.96;101678.97;4993272;28;46037;-72
2021/09/12 00:39:10;;;;;;;;;15.25;15.00;;;;;18.81;67.09;101672.59;4990091;28;45423;-71
2021/09/12 00:41:42;;;;;;;;;21.00;16.75;;;;;18.86;66.74;101677.63;4986897;28;45499;-71
2021/09/12 00:44:12;;;;;;;;;15.75;15.75;;;;;18.87;67.31;101674.03;4994375;28;45543;-71
2021/09/12 00:46:43;;;;;;;;;15.50;15.00;;;;;18.89;66.96;101672.09;4996173;28;46947;-71
2021/09/12 00:49:09;;;;;;;;;18.50;14.50;;;;;18.86;67.13;101667.84;4994892;28;45772;-71
2021/09/12 00:51:34;;;;;;;;;18.00;14.25;;;;;18.89;67.30;101675.63;4991486;28;45464;-71
2021/09/12 00:54:02;;;;;;;;;14.25;13.25;;;;;18.87;67.17;101666.03;4996245;28;45322;-71
2021/09/12 00:56:28;;;;;;;;;19.25;14.75;;;;;18.92;67.35;101674.59;4996604;28;45373;-71
2021/09/12 00:58:55;;;;;;;;;15.75;14.50;;;;;18.95;67.03;101675.25;4986356;28;45439;-71
2021/09/12 01:01:21;;;;;;;;;16.75;14.75;;;;;18.96;66.92;101671.63;4997224;28;45395;-71
2021/09/12 01:03:46;;;;;;;;;13.25;12.25;;;;;18.97;66.64;101668.00;4982045;28;45961;-71
2021/09/12 01:06:11;;;;;;;;;15.75;14.00;;;;;18.96;66.48;101660.97;4995499;28;46286;-71
2021/09/12 01:08:39;;;;;;;;;14.00;13.00;;;;;19.00;66.42;101667.84;4989995;28;45546;-71
2021/09/12 01:11:05;;;;;;;;;13.75;13.00;;;;;19.02;66.96;101663.25;4995112;28;45810;-71
2021/09/12 01:13:36;;;;;;;;;14.00;13.00;;;;;19.05;66.77;101659.53;4994782;28;45462;-71
2021/09/12 01:16:11;;;;;;;;;13.75;13.75;;;;;19.05;66.68;101656.84;4981201;28;46506;-71
2021/09/12 01:18:37;;;;;;;;;16.25;14.25;;;;;19.03;66.62;101651.63;4995163;28;45462;-71
2021/09/12 01:21:02;;;;;;;;;17.50;13.75;;;;;19.02;66.86;101654.41;4992029;28;55960;-71
2021/09/12 01:23:27;;;;;;;;;22.50;15.75;;;;;19.02;66.96;101659.72;4981090;28;45386;-71
2021/09/12 01:25:56;;;;;;;;;18.00;13.25;;;;;19.02;67.13;101652.59;4980137;28;47744;-71
2021/09/12 01:28:22;;;;;;;;;10.75;10.00;;;;;19.02;66.77;101651.75;4980634;28;45923;-71
2021/09/12 01:30:47;;;;;;;;;14.25;12.00;;;;;19.03;67.19;101650.78;4992464;28;45273;-71
2021/09/12 01:33:12;;;;;;;;;15.00;14.25;;;;;19.03;67.01;101654.31;4980480;28;45269;-71
2021/09/12 01:35:38;;;;;;;;;23.75;19.75;;;;;19.03;66.88;101656.97;4985687;28;56684;-71
2021/09/12 01:38:03;;;;;;;;;20.75;20.25;;;;;19.02;66.83;101647.25;4982520;28;45551;-71
2021/09/12 01:40:28;;;;;;;;;21.25;19.50;;;;;19.06;66.87;101655.06;4991241;28;45391;-71
2021/09/12 01:42:53;;;;;;;;;16.50;14.50;;;;;19.08;66.84;101650.50;4992797;28;49491;-71
2021/09/12 01:45:19;;;;;;;;;20.75;19.50;;;;;19.09;67.14;101653.06;4980731;28;46160;-71
2021/09/12 01:47:46;;;;;;;;;22.25;19.00;;;;;19.10;67.13;101653.91;4982689;28;45525;-71
2021/09/12 01:50:12;;;;;;;;;26.25;21.00;;;;;19.09;67.17;101646.88;4983123;28;45673;-71
2021/09/12 01:52:38;;;;;;;;;26.25;22.00;;;;;19.10;67.04;101644.09;4985586;28;45335;-71
2021/09/12 01:55:03;;;;;;;;;22.00;21.25;;;;;19.09;67.24;101642.38;4992432;28;50345;-71
2021/09/12 01:57:29;;;;;;;;;25.00;22.25;;;;;19.09;67.46;101644.22;4977055;28;45496;-71
2021/09/12 01:59:54;;;;;;;;;24.75;24.25;;;;;19.10;67.22;101641.44;4978802;28;45458;-71
2021/09/12 02:02:19;;;;;;;;;24.00;22.50;;;;;19.08;67.49;101640.69;4983968;28;45469;-71
2021/09/12 02:04:45;;;;;;;;;22.75;20.00;;;;;19.10;67.45;101644.09;4990437;28;53902;-71
2021/09/12 02:07:10;;;;;;;;;25.25;23.75;;;;;19.12;67.93;101652.00;4994272;28;45535;-71
2021/09/12 02:09:35;;;;;;;;;24.25;20.50;;;;;19.10;67.70;101643.25;4977661;28;45452;-71
2021/09/12 02:12:01;;;;;;;;;25.00;20.50;;;;;19.11;67.79;101650.31;4992634;28;50129;-71
2021/09/12 02:14:26;;;;;;;;;23.00;21.50;;;;;19.11;67.47;101652.97;4989264;28;45483;-71
2021/09/12 02:16:51;;;;;;;;;21.75;16.25;;;;;19.04;67.62;101636.50;4979701;28;45285;-71
2021/09/12 02:19:17;;;;;;;;;25.50;22.00;;;;;19.10;67.67;101645.91;4991497;28;45572;-71
2021/09/12 02:21:42;;;;;;;;;17.50;15.75;;;;;19.06;67.53;101636.44;4981886;28;45715;-71
2021/09/12 02:24:08;;;;;;;;;17.25;15.50;;;;;19.09;67.14;101654.84;4984975;28;45381;-71
2021/09/12 02:26:33;;;;;;;;;22.25;19.00;;;;;19.08;67.36;101663.81;4985671;28;45439;-71
2021/09/12 02:28:59;;;;;;;;;23.50;19.00;;;;;19.03;67.11;101653.44;4988951;28;45796;-71
2021/09/12 02:31:25;;;;;;;;;23.00;22.00;;;;;19.08;66.77;101663.81;4991373;28;45646;-71
2021/09/12 02:33:50;;;;;;;;;21.75;21.00;;;;;19.09;67.32;101663.72;4993189;28;46255;-71
2021/09/12 02:36:15;;;;;;;;;22.75;22.00;;;;;19.09;66.51;101669.03;4982539;28;47286;-71
2021/09/12 02:38:42;;;;;;;;;23.00;21.75;;;;;19.09;66.42;101673.50;4986307;28;45530;-71
2021/09/12 02:41:07;;;;;;;;;24.25;18.00;;;;;19.07;65.80;101668.28;4983230;28;45666;-71
2021/09/12 02:43:33;;;;;;;;;23.75;21.00;;;;;19.07;66.18;101664.78;4978152;28;49189;-71
2021/09/12 02:45:58;;;;;;;;;21.50;20.50;;;;;19.08;66.09;101671.81;4993422;28;45280;-71
2021/09/12 02:48:24;;;;;;;;;16.75;16.75;;;;;19.08;65.72;101672.66;4989272;28;45415;-71
2021/09/12 02:50:49;;;;;;;;;22.75;21.00;;;;;19.08;65.79;101666.47;4987829;28;45697;-71
2021/09/12 02:53:14;;;;;;;;;19.00;15.25;;;;;19.06;65.52;101666.59;4983062;28;46214;-71
2021/09/12 02:55:40;;;;;;;;;18.50;18.00;;;;;19.04;65.85;101666.66;4986783;28;45463;-71
2021/09/12 02:58:05;;;;;;;;;21.00;18.00;;;;;18.93;65.55;101642.50;4993085;28;45911;-71
2021/09/12 03:00:30;;;;;;;;;20.25;18.25;;;;;19.02;65.65;101657.94;4989961;28;45427;-71
2021/09/12 03:02:56;;;;;;;;;16.75;15.25;;;;;19.00;65.80;101651.84;4981284;28;45488;-71
2021/09/12 03:05:22;;;;;;;;;16.75;15.00;;;;;19.00;65.12;101658.97;4982935;28;45507;-71
2021/09/12 03:07:47;;;;;;;;;15.75;15.00;;;;;18.97;64.67;101652.03;4989609;28;45370;-71
2021/09/12 03:10:12;;;;;;;;;14.25;13.25;;;;;18.95;65.41;101667.28;4977806;28;48861;-71
2021/09/12 03:12:38;;;;;;;;;14.50;13.25;;;;;18.89;65.18;101651.66;4989156;28;47729;-71
2021/09/12 03:15:05;;;;;;;;;10.50;9.25;;;;;18.89;64.75;101656.97;4989120;28;45277;-71
2021/09/12 03:17:30;;;;;;;;;21.25;16.25;;;;;18.86;64.94;101656.34;4987600;28;45486;-71
2021/09/12 03:19:56;;;;;;;;;16.50;14.25;;;;;18.78;65.34;101639.00;4978272;28;45543;-71
2021/09/12 03:22:22;;;;;;;;;13.75;13.25;;;;;18.82;65.25;101652.16;4977861;28;46259;-71
2021/09/12 03:24:47;;;;;;;;;13.00;13.00;;;;;18.74;65.41;101636.63;4989808;28;45400;-71
2021/09/12 03:27:12;;;;;;;;;16.00;14.00;;;;;18.76;65.14;101653.38;4987643;28;45418;-71
2021/09/12 03:29:38;;;;;;;;;13.50;13.50;;;;;18.71;65.30;101652.81;4989410;28;45502;-71
2021/09/12 03:32:04;;;;;;;;;15.50;13.75;;;;;18.67;65.41;101646.78;4989923;28;52875;-71
2021/09/12 03:34:29;;;;;;;;;14.25;13.00;;;;;18.49;65.69;101618.66;4994345;28;46017;-71
2021/09/12 03:36:55;;;;;;;;;16.00;14.50;;;;;18.60;65.54;101641.97;4981360;28;50169;-71
2021/09/12 03:39:21;;;;;;;;;13.75;13.50;;;;;18.55;65.56;101646.72;4988628;28;45763;-71
2021/09/12 03:41:47;;;;;;;;;11.00;10.25;;;;;18.48;65.75;101640.91;4990120;28;45526;-71
2021/09/12 03:44:13;;;;;;;;;12.00;12.00;;;;;18.46;66.26;101642.78;4984811;28;45569;-71
2021/09/12 03:46:39;;;;;;;;;11.75;11.00;;;;;18.43;66.26;101649.19;4994255;28;45311;-71
2021/09/12 03:49:04;;;;;;;;;14.25;13.50;;;;;18.36;66.42;101642.50;4995005;28;45530;-71
2021/09/12 03:51:30;;;;;;;;;13.75;12.50;;;;;18.16;66.34;101624.22;4992623;28;45616;-71
2021/09/12 03:53:55;;;;;;;;;14.00;13.50;;;;;18.27;66.68;101651.06;4991489;28;45423;-71
2021/09/12 03:56:20;;;;;;;;;14.00;11.25;;;;;18.23;66.61;101654.84;4991867;28;45471;-71
2021/09/12 03:58:45;;;;;;;;;14.25;13.50;;;;;18.21;66.83;101652.28;4987776;28;45438;-71
2021/09/12 04:01:11;;;;;;;;;15.25;11.25;;;;;18.19;66.79;101648.84;4994280;28;46021;-71
2021/09/12 04:03:36;;;;;;;;;13.75;12.25;;;;;18.16;66.99;101651.69;4982813;28;45510;-71
2021/09/12 04:06:01;;;;;;;;;18.50;13.75;;;;;18.11;66.76;101644.94;4991269;28;45317;-71
2021/09/12 04:08:27;;;;;;;;;14.50;12.25;;;;;18.08;67.21;101639.81;4992355;28;45373;-71
2021/09/12 04:10:52;;;;;;;;;12.75;12.75;;;;;18.07;66.88;101654.06;4990867;28;45387;-71
2021/09/12 04:13:17;;;;;;;;;14.00;12.50;;;;;18.03;67.06;101640.09;4994450;28;45544;-71
2021/09/12 04:15:43;;;;;;;;;13.00;12.25;;;;;17.98;66.99;101640.34;4980724;28;45420;-71
2021/09/12 04:18:08;;;;;;;;;13.75;13.50;;;;;17.96;67.31;101642.25;4988817;28;45392;-71
2021/09/12 04:20:33;;;;;;;;;13.75;13.00;;;;;17.76;67.04;101608.03;4987739;28;46110;-71
2021/09/12 04:22:59;;;;;;;;;16.25;12.50;;;;;17.87;67.09;101633.97;4987384;28;45529;-71
2021/09/12 04:25:24;;;;;;;;;15.00;14.00;;;;;17.82;67.28;101639.56;4991264;28;45413;-72
2021/09/12 04:27:49;;;;;;;;;16.00;13.75;;;;;17.71;67.71;101626.88;4992708;28;45424;-72
2021/09/12 04:30:15;;;;;;;;;14.50;13.00;;;;;17.69;67.51;101626.06;4980477;28;47344;-72
2021/09/12 04:32:41;;;;;;;;;15.00;14.00;;;;;17.65;67.66;101632.53;4983873;28;45428;-72
2021/09/12 04:35:07;;;;;;;;;14.75;12.50;;;;;17.60;68.08;101636.41;4986146;28;45503;-71
2021/09/12 04:37:33;;;;;;;;;14.25;12.00;;;;;17.46;68.20;101627.44;4991505;28;45459;-72
2021/09/12 04:39:58;;;;;;;;;16.25;13.00;;;;;17.50;68.07;101649.38;4993628;28;45408;-72
2021/09/12 04:42:24;;;;;;;;;15.50;14.75;;;;;17.40;68.37;101633.09;4991995;28;45390;-72
2021/09/12 04:44:49;;;;;;;;;17.75;16.50;;;;;17.38;68.65;101642.97;4985667;28;45705;-72
2021/09/12 04:47:14;;;;;;;;;16.75;14.00;;;;;17.33;68.54;101638.84;4983571;28;45984;-72
2021/09/12 04:49:40;;;;;;;;;16.00;13.25;;;;;17.28;68.71;101639.13;4986350;28;46044;-71
2021/09/12 04:52:06;;;;;;;;;18.25;13.00;;;;;17.24;69.21;101642.03;4984470;28;45407;-71
2021/09/12 04:54:31;;;;;;;;;14.50;14.50;;;;;17.20;68.82;101633.38;4983856;28;45626;-72
2021/09/12 04:56:57;;;;;;;;;14.50;12.00;;;;;17.15;68.85;101635.44;4988843;28;45463;-72
2021/09/12 04:59:22;;;;;;;;;16.25;14.00;;;;;17.10;68.98;101637.50;4989528;28;48168;-72
2021/09/12 05:01:48;;;;;;;;;17.50;15.50;;;;;17.04;69.11;101636.03;4980172;28;45422;-72
2021/09/12 05:04:13;;;;;;;;;15.25;14.25;;;;;16.99;69.27;101637.22;4990879;28;45312;-72
2021/09/12 05:06:38;;;;;;;;;16.00;14.50;;;;;16.97;69.46;101641.78;4991985;28;45713;-71
2021/09/12 05:09:03;;;;;;;;;20.75;15.00;;;;;16.93;69.36;101641.94;4989048;28;45442;-71
2021/09/12 05:11:29;;;;;;;;;16.25;14.50;;;;;16.91;69.12;101651.81;4986488;28;45732;-71
2021/09/12 05:13:54;;;;;;;;;17.00;14.00;;;;;16.88;69.62;101653.75;4980029;28;45360;-71
2021/09/12 05:16:19;;;;;;;;;16.50;15.75;;;;;16.59;69.60;101602.22;4994333;28;45494;-71
2021/09/12 05:18:45;;;;;;;;;16.50;13.75;;;;;16.82;69.33;101644.34;4987849;28;46466;-71
2021/09/12 05:21:10;;;;;;;;;17.50;14.00;;;;;16.78;69.50;101641.91;4986431;28;45849;-71
2021/09/12 05:23:35;;;;;;;;;20.25;14.25;;;;;16.78;69.75;101648.09;4983038;28;45337;-71
2021/09/12 05:26:01;;;;;;;;;12.75;12.75;;;;;16.77;69.84;101649.03;4981729;28;45332;-71
2021/09/12 05:28:26;;;;;;;;;16.25;12.75;;;;;16.77;69.96;101648.19;4979409;28;46228;-71
2021/09/12 05:30:53;;;;;;;;;16.75;15.00;;;;;16.70;70.46;101642.28;4991980;28;45731;-71
2021/09/12 05:33:19;;;;;;;;;15.25;14.25;;;;;16.73;70.27;101646.63;4990310;28;45428;-71
2021/09/12 05:35:44;;;;;;;;;15.50;14.25;;;;;16.70;70.08;101648.47;4983750;28;45382;-71
2021/09/12 05:38:09;;;;;;;;;14.25;12.50;;;;;16.69;70.26;101646.75;4990053;28;46941;-71
2021/09/12 05:40:35;;;;;;;;;11.50;11.00;;;;;16.70;70.31;101647.59;4991413;28;45678;-71
2021/09/12 05:43:00;;;;;;;;;14.00;14.00;;;;;16.68;70.54;101654.81;4992532;28;45323;-71
2021/09/12 05:45:26;;;;;;;;;14.75;13.00;;;;;16.64;70.83;101650.59;4981302;28;45542;-71
2021/09/12 05:47:52;;;;;;;;;17.50;14.25;;;;;16.63;70.75;101652.38;4979144;28;46160;-71
2021/09/12 05:50:17;;;;;;;;;14.25;14.25;;;;;16.63;71.04;101648.88;4982235;28;49618;-71
2021/09/12 05:52:43;;;;;;;;;13.25;11.75;;;;;16.64;70.81;101653.25;4987995;28;45523;-71
2021/09/12 05:55:09;;;;;;;;;15.00;13.75;;;;;16.61;71.26;101645.47;4978116;28;45474;-71
2021/09/12 05:57:34;;;;;;;;;16.75;16.00;;;;;16.63;71.40;101646.22;4989885;28;45419;-71
2021/09/12 06:00:00;;;;;;;;;15.75;12.25;;;;;16.61;71.46;101648.13;4989236;28;45522;-71
2021/09/12 06:02:25;;;;;;;;;17.00;13.00;;;;;16.64;71.36;101654.09;4990159;28;45395;-71
2021/09/12 06:04:51;;;;;;;;;16.00;16.00;;;;;16.67;71.32;101656.59;4987669;28;45570;-71
2021/09/12 06:07:16;;;;;;;;;16.25;14.25;;;;;16.68;71.11;101657.44;4984821;28;52519;-71
2021/09/12 06:09:42;;;;;;;;;24.50;15.00;;;;;16.73;71.21;101660.75;4990985;28;45313;-71
2021/09/12 06:12:07;;;;;;;;;16.75;14.50;;;;;16.79;71.59;101662.22;4989545;28;45391;-71
2021/09/12 06:14:34;;;;;;;;;21.50;18.50;;;;;16.78;71.55;101655.19;4990208;28;45498;-71
2021/09/12 06:17:01;;;;;;;;;18.50;18.50;;;;;16.90;71.10;101670.44;4989808;28;45568;-71
2021/09/12 06:19:27;;;;;;;;;17.50;14.50;;;;;16.95;71.33;101660.44;4990692;28;46782;-71
2021/09/12 06:21:52;;;;;;;;;17.25;17.00;;;;;17.01;71.11;101670.72;4991167;28;45403;-71
2021/09/12 06:24:17;;;;;;;;;17.75;15.00;;;;;17.07;70.78;101666.84;4989171;28;45358;-71
2021/09/12 06:26:42;;;;;;;;;23.75;21.25;;;;;17.14;70.58;101665.59;4985962;28;49192;-71
2021/09/12 06:29:08;;;;;;;;;19.75;18.75;;;;;17.17;70.02;101662.75;4981680;28;45305;-73
2021/09/12 06:31:33;;;;;;;;;21.50;19.50;;;;;17.29;69.97;101672.72;4990895;28;45529;-71
2021/09/12 06:33:58;;;;;;;;;26.50;24.00;;;;;17.35;69.74;101661.72;4984062;28;45386;-71
2021/09/12 06:36:24;;;;;;;;;23.50;19.75;;;;;17.43;69.52;101666.59;4980618;28;50843;-71
2021/09/12 06:38:49;;;;;;;;;20.50;18.75;;;;;17.51;69.17;101668.84;4986084;28;52967;-71
2021/09/12 06:41:14;;;;;;;;;18.00;16.25;;;;;17.59;68.74;101671.91;4983034;28;45342;-71
2021/09/12 06:43:40;;;;;;;;;21.75;19.75;;;;;17.67;68.67;101664.34;4992197;28;45380;-71
2021/09/12 06:46:06;;;;;;;;;23.50;17.25;;;;;17.76;68.84;101671.84;4978513;28;46078;-72
2021/09/12 06:48:31;;;;;;;;;17.00;17.00;;;;;17.89;68.68;101667.50;4984991;28;45341;-72
2021/09/12 06:50:57;;;;;;;;;20.50;15.75;;;;;18.12;67.89;101659.97;4981682;28;45516;-73
2021/09/12 06:53:24;;;;;;;;;20.75;17.00;;;;;18.54;67.96;101671.63;4979861;28;45942;-73
2021/09/12 06:55:49;;;;;;;;;19.00;16.00;;;;;18.76;67.10;101669.38;4979193;28;46381;-72
2021/09/12 06:58:16;;;;;;;;;19.50;16.50;;;;;18.80;66.68;101672.72;4992722;28;55040;-73
2021/09/12 07:00:41;;;;;;;;;20.25;19.75;;;;;18.84;66.54;101669.72;4981220;28;45574;-71
2021/09/12 07:03:06;;;;;;;;;20.75;18.25;;;;;18.88;66.54;101659.75;4992332;28;45762;-71
2021/09/12 07:05:32;;;;;;;;;15.25;14.00;;;;;18.96;66.61;101660.97;4993979;28;45564;-71
2021/09/12 07:07:57;;;;;;;;;17.25;16.25;;;;;19.09;66.11;101657.53;4983788;28;45879;-72
2021/09/12 07:10:23;;;;;;;;;20.00;19.00;;;;;19.27;65.75;101661.69;4982031;28;45773;-72
2021/09/12 07:12:48;;;;;;;;;22.25;21.50;;;;;19.45;64.90;101662.28;4985656;28;45457;-73
2021/09/12 07:15:13;;;;;;;;;18.25;16.25;;;;;19.55;64.50;101660.72;4990761;28;45989;-71
2021/09/12 07:17:39;;;;;;;;;20.50;17.25;;;;;19.63;64.61;101655.78;4991082;28;47665;-71
2021/09/12 07:20:05;;;;;;;;;18.75;15.00;;;;;19.69;63.86;101646.53;4981847;28;45451;-72
2021/09/12 07:22:30;;;;;;;;;18.25;15.50;;;;;19.83;64.01;101656.25;4991190;28;45536;-72
2021/09/12 07:24:56;;;;;;;;;15.75;14.00;;;;;20.00;63.83;101659.50;4986558;28;46666;-71
2021/09/12 07:27:21;;;;;;;;;14.25;12.75;;;;;20.22;63.31;101666.03;4983607;28;45425;-71
2021/09/12 07:29:46;;;;;;;;;13.00;12.75;;;;;20.26;62.49;101659.53;4990716;28;45802;-71
2021/09/12 07:32:12;;;;;;;;;11.50;10.25;;;;;20.40;62.88;101667.41;4993799;28;45353;-72
2021/09/12 07:34:37;;;;;;;;;12.25;10.25;;;;;20.43;61.88;101667.22;4991523;28;46017;-71
2021/09/12 07:37:03;;;;;;;;;8.75;8.50;;;;;20.56;61.07;101662.75;4987550;28;45408;-72
2021/09/12 07:39:28;;;;;;;;;13.75;8.75;;;;;20.65;61.37;101669.28;4996948;28;45527;-72
2021/09/12 07:41:53;;;;;;;;;8.50;8.00;;;;;20.69;60.53;101661.91;4995037;28;45444;-72
2021/09/12 07:44:19;;;;;;;;;8.50;8.50;;;;;20.85;60.95;101660.69;4998094;28;46274;-71
2021/09/12 07:46:44;;;;;;;;;10.00;9.00;;;;;21.01;59.19;101659.59;4990779;28;45368;-71
2021/09/12 07:49:09;;;;;;;;;9.50;9.25;;;;;21.15;59.84;101663.97;4990637;28;45337;-71
2021/09/12 07:51:35;;;;;;;;;9.00;9.00;;;;;21.38;59.44;101667.63;4995712;28;45574;-71
2021/09/12 07:54:01;;;;;;;;;10.50;9.75;;;;;21.51;59.12;101661.28;4997821;28;45370;-71
2021/09/12 07:56:26;;;;;;;;;8.75;8.75;;;;;21.69;57.88;101668.88;4997304;28;45850;-71
2021/09/12 07:58:52;;;;;;;;;7.00;7.00;;;;;21.82;58.27;101664.31;4997592;28;45790;-71
2021/09/12 08:01:17;;;;;;;;;10.00;9.50;;;;;22.01;58.20;101671.81;4993141;28;45616;-71
2021/09/12 08:03:42;;;;;;;;;10.00;8.25;;;;;22.25;56.95;101659.25;4990888;28;46010;-71
2021/09/12 08:06:08;;;;;;;;;10.00;7.00;;;;;22.50;56.80;101651.94;4997423;28;45401;-69
2021/09/12 08:08:33;;;;;;;;;7.25;7.00;;;;;22.66;55.61;101641.75;4987905;28;45376;-71
2021/09/12 08:10:58;;;;;;;;;10.25;9.00;;;;;23.20;55.82;101665.09;4992379;28;50372;-68
2021/09/12 08:13:24;;;;;;;;;7.75;6.25;;;;;23.55;54.34;101666.72;4992158;28;45551;-68
2021/09/12 08:15:49;;;;;;;;;7.00;5.50;;;;;23.79;53.60;101666.53;4995869;28;45443;-69
2021/09/12 08:18:16;;;;;;;;;6.25;5.50;;;;;24.03;55.19;101667.16;4987330;28;50383;-69
2021/09/12 08:20:42;;;;;;;;;7.50;6.25;;;;;24.21;52.81;101668.25;4988690;28;45887;-69
2021/09/12 08:23:07;;;;;;;;;8.00;7.00;;;;;24.39;52.42;101678.44;4992129;28;45416;-68
2021/09/12 08:25:32;;;;;;;;;7.00;5.50;;;;;24.54;52.31;101671.75;4995715;28;45487;-68
2021/09/12 08:27:58;;;;;;;;;7.75;6.75;;;;;24.81;51.41;101676.53;4991336;28;45361;-69
2021/09/12 08:30:23;;;;;;;;;5.00;5.00;;;;;25.21;51.18;101676.53;4991437;28;45687;-69
2021/09/12 08:32:48;;;;;;;;;5.25;4.00;;;;;25.64;50.38;101667.25;4986913;28;45672;-69
2021/09/12 08:35:14;;;;;;;;;5.00;3.00;;;;;26.00;49.63;101670.25;4991115;28;53243;-69
2021/09/12 08:37:39;;;;;;;;;5.50;4.50;;;;;26.44;47.91;101671.44;4983168;28;45757;-69
2021/09/12 08:40:06;;;;;;;;;6.25;5.00;;;;;26.89;47.44;101670.72;4994039;28;45335;-68
2021/09/12 08:42:32;;;;;;;;;4.25;4.00;;;;;27.97;47.56;101669.81;4986370;28;45971;-69
2021/09/12 08:44:58;;;;;;;;;8.25;5.25;;;;;29.58;45.52;101669.97;4987823;28;45550;-69
2021/09/12 08:47:24;;;;;;;;;7.00;5.00;;;;;31.11;43.15;101668.19;4986400;28;45375;-69
2021/09/12 08:49:49;;;;;;;;;3.00;3.00;;;;;32.54;41.92;101672.00;4994433;28;48086;-69
2021/09/12 08:52:14;;;;;;;;;3.00;3.00;;;;;33.82;39.35;101673.31;4991141;28;58211;-69
2021/09/12 08:54:40;;;;;;;;;3.25;3.25;;;;;34.93;37.84;101674.31;4987032;28;45431;-69
2021/09/12 08:57:06;;;;;;;;;3.00;3.00;;;;;35.98;36.24;101673.75;4988564;28;45735;-68
2021/09/12 08:59:33;;;;;;;;;4.50;4.25;;;;;36.74;35.82;101670.44;4984232;28;45520;-69
2021/09/12 09:02:10;;;;;;;;;3.00;3.00;;;;;37.21;33.90;101664.78;4993353;28;46051;-69
2021/09/12 09:04:36;;;;;;;;;5.50;5.00;;;;;37.73;33.96;101660.84;4992948;28;45709;-70
2021/09/12 09:07:05;;;;;;;;;5.00;5.00;;;;;38.17;33.08;101660.94;4994011;28;45546;-70
2021/09/12 09:10:03;;;;;;;;;4.75;4.75;;;;;38.16;31.08;101662.81;4990100;28;45703;-69
2021/09/12 09:12:33;;;;;;;;;7.00;5.00;;;;;38.35;30.99;101666.47;4989666;28;46759;-70
2021/09/12 09:15:02;;;;;;;;;6.00;2.00;;;;;38.10;30.46;101667.31;4991773;28;46823;-70
2021/09/12 09:17:28;;;;;;;;;29.50;26.50;;;;;37.98;30.73;101660.88;4994160;28;45479;-70
2021/09/12 09:19:55;;;;;;;;;4.50;4.25;;;;;38.38;29.88;101668.75;4993570;28;45569;-69
2021/09/12 09:22:38;;;;;;;;;1.75;1.75;;;;;39.19;29.10;101664.81;4985109;28;45518;-69
2021/09/12 09:25:14;;;;;;;;;3.00;2.00;;;;;39.95;28.99;101673.41;4991306;28;45656;-69
2021/09/12 09:27:57;;;;;;;;;6.50;6.50;;;;;40.28;27.51;101662.63;4986301;28;45803;-69
2021/09/12 09:30:24;;;;;;;;;4.50;3.75;;;;;40.84;27.59;101680.41;4986098;28;45535;-69
2021/09/12 09:32:50;;;;;;;;;4.75;3.25;;;;;41.23;27.79;101677.84;4984130;28;46368;-69
2021/09/12 09:35:23;;;;;;;;;4.00;3.00;;;;;41.01;26.44;101674.97;4988072;28;45883;-69
2021/09/12 09:37:51;;;;;;;;;4.00;4.00;;;;;40.42;26.19;101666.81;4987906;28;45450;-69
2021/09/12 09:40:16;;;;;;;;;2.25;2.25;;;;;39.60;26.16;101672.22;4994030;28;45319;-69
2021/09/12 09:42:46;;;;;;;;;4.00;4.00;;;;;38.62;27.15;101669.75;4994678;28;45375;-72
2021/09/12 09:45:17;;;;;;;;;4.25;4.25;;;;;37.95;27.85;101674.22;4986575;28;45316;-69
2021/09/12 09:47:45;;;;;;;;;4.25;2.75;;;;;37.40;28.29;101672.09;4991027;28;45534;-69
2021/09/12 09:50:13;;;;;;;;;1.75;1.75;;;;;37.05;28.63;101672.44;4992871;28;45494;-69
2021/09/12 09:52:41;;;;;;;;;2.25;2.25;;;;;36.70;28.84;101663.75;4993963;28;47105;-69
2021/09/12 09:55:07;;;;;;;;;3.75;2.25;;;;;36.68;28.41;101657.63;4989823;28;45545;-69
2021/09/12 09:57:34;;;;;;;;;3.75;2.00;;;;;36.91;28.68;101662.63;4987585;28;45384;-69
2021/09/12 10:00:00;;;;;;;;;3.50;2.00;;;;;36.96;28.12;101660.09;4989892;28;46877;-69
2021/09/12 10:02:26;;;;;;;;;1.75;1.75;;;;;37.00;28.58;101661.31;4990622;28;46371;-69
2021/09/12 10:04:52;;;;;;;;;2.75;2.00;;;;;36.96;28.10;101661.97;4994189;28;45416;-69
2021/09/12 10:07:20;;;;;;;;;1.25;1.25;;;;;36.91;28.38;101654.41;4992395;28;45482;-71
2021/09/12 10:09:45;;;;;;;;;2.75;2.00;;;;;36.87;28.30;101660.50;4989333;28;45894;-70
2021/09/12 10:12:12;;;;;;;;;3.50;2.25;;;;;36.87;28.73;101639.44;4985830;28;46273;-72
2021/09/12 10:14:47;;;;;;;;;4.00;3.00;;;;;37.12;28.07;101655.13;4990908;28;45689;-69
2021/09/12 10:17:15;;;;;;;;;1.50;1.50;;;;;37.35;28.17;101658.16;4990133;28;45784;-69
2021/09/12 10:19:42;;;;;;;;;3.00;1.25;;;;;37.18;26.85;101641.41;4979120;28;45397;-71
2021/09/12 10:22:14;;;;;;;;;4.75;3.00;;;;;36.83;27.39;101644.50;4994635;28;46428;-69
2021/09/12 10:25:01;;;;;;;;;3.25;2.00;;;;;36.25;28.44;101651.81;4989221;28;45475;-69
2021/09/12 10:27:40;;;;;;;;;3.25;2.50;;;;;35.66;27.90;101644.50;4991495;28;45408;-68
2021/09/12 10:30:21;;;;;;;;;2.50;2.50;;;;;35.10;29.10;101637.41;4988613;28;45480;-69
2021/09/12 10:32:49;;;;;;;;;3.00;1.25;;;;;34.70;29.02;101633.66;4992537;28;50561;-68
2021/09/12 10:35:24;;;;;;;;;4.50;1.50;;;;;34.35;28.97;101633.69;4993042;28;45560;-68
2021/09/12 10:38:00;;;;;;;;;4.50;2.50;;;;;34.10;29.63;101633.31;4993063;28;45484;-67
2021/09/12 10:40:45;;;;;;;;;3.00;3.00;;;;;33.84;29.94;101633.06;4993459;28;45360;-67
2021/09/12 10:43:36;;;;;;;;;5.50;2.50;;;;;33.72;30.56;101638.19;4984920;28;46003;-66
2021/09/12 10:46:02;;;;;;;;;13.25;9.25;;;;;33.72;30.69;101635.47;4993920;28;45448;-66
2021/09/12 10:48:29;;;;;;;;;15.75;13.50;;;;;33.81;30.39;101633.47;4993867;28;45328;-66
2021/09/12 10:50:55;;;;;;;;;32.75;15.75;;;;;33.85;30.53;101627.41;4988740;28;46361;-66
2021/09/12 10:53:42;;;;;;;;;14.50;6.75;;;;;33.80;30.60;101634.50;4992310;28;46975;-68
2021/09/12 10:56:08;;;;;;;;;22.00;14.00;;;;;33.60;30.96;101624.25;4984717;28;45813;-69
2021/09/12 10:58:33;;;;;;;;;4.50;4.50;;;;;33.55;30.35;101625.91;4992447;28;45723;-67
2021/09/12 11:01:01;;;;;;;;;9.00;6.75;;;;;33.43;31.02;101629.16;4988976;28;45351;-68
2021/09/12 11:03:28;;;;;;;;;4.00;4.00;;;;;33.14;30.49;101626.50;4990402;28;45601;-67
2021/09/12 11:05:54;;;;;;;;;10.75;7.75;;;;;32.77;31.00;101622.88;5005732;28;45716;-68
2021/09/12 11:08:19;;;;;;;;;16.75;14.00;;;;;32.59;31.49;101620.59;4992189;28;45699;-66
2021/09/12 11:10:47;;;;;;;;;16.00;15.75;;;;;32.16;31.89;101614.09;4993091;28;46002;-67